Time;durP1;ratioP1;P1;durP2;ratioP2;P2;SDS_P1;SDS_P2;PMS_P1;PMS_P2;Temp;Humidity;BMP_temperature;BMP_pressure;BME280_temperature;BME280_humidity;BME280_pressure;Samples;Min_cycle;Max_cycle;Signal;HPM_P1;HPM_P2
2021/12/13 00:01:33;;;;;;;159.75;55.80;;;;;;;-1.58;89.80;100053.84;8319763;28;20061;-87
2021/12/13 00:05:48;;;;;;;158.90;54.20;;;;;;;-1.49;89.32;100052.63;8312460;28;20048;-87
2021/12/13 00:09:54;;;;;;;155.25;53.50;;;;;;;-1.49;89.44;100044.66;8433232;28;20062;-86
2021/12/13 00:13:59;;;;;;;168.75;55.22;;;;;;;-1.50;89.57;100039.56;8432370;28;20090;-85
2021/12/13 00:18:04;;;;;;;154.38;52.33;;;;;;;-1.52;89.94;100047.72;8433210;28;20111;-85
2021/12/13 00:22:14;;;;;;;164.15;54.58;;;;;;;-1.59;90.69;100049.59;8433364;28;20101;-83
2021/12/13 00:26:33;;;;;;;171.23;56.67;;;;;;;-1.62;91.32;100052.63;8429067;28;20051;-85
2021/12/13 00:30:45;;;;;;;162.50;55.40;;;;;;;-1.66;91.63;100051.41;8395841;28;20205;-85
2021/12/13 00:34:55;;;;;;;167.95;55.63;;;;;;;-1.70;92.56;100047.56;8412291;28;20417;-86
2021/12/13 00:39:03;;;;;;;163.98;54.75;;;;;;;-1.65;92.93;100052.22;8395857;28;20139;-85
2021/12/13 00:43:08;;;;;;;161.18;56.10;;;;;;;-1.67;93.65;100055.09;8411757;28;20056;-85
2021/12/13 00:47:30;;;;;;;166.25;57.75;;;;;;;-1.68;94.36;100064.03;8429063;28;20043;-85
2021/12/13 00:51:36;;;;;;;171.93;59.95;;;;;;;-1.68;94.63;100061.38;8429023;28;20142;-85
2021/12/13 00:55:37;;;;;;;178.65;59.00;;;;;;;-1.61;94.27;100075.44;8412387;28;20059;-85
2021/12/13 00:59:47;;;;;;;173.32;61.03;;;;;;;-1.53;94.39;100067.28;8427890;28;20040;-84
2021/12/13 01:03:50;;;;;;;164.88;59.53;;;;;;;-1.42;94.13;100074.59;8429859;28;20062;-85
2021/12/13 01:08:21;;;;;;;182.38;60.13;;;;;;;-1.37;94.14;100077.44;8432288;28;20477;-82
2021/12/13 01:12:24;;;;;;;172.43;59.85;;;;;;;-1.40;94.26;100077.84;8432426;28;20040;-84
2021/12/13 01:16:49;;;;;;;169.82;59.08;;;;;;;-1.34;94.65;100071.72;8428910;28;20556;-84
2021/12/13 01:21:11;;;;;;;176.63;59.67;;;;;;;-1.35;95.37;100074.59;8430758;28;20057;-84
2021/12/13 01:25:39;;;;;;;163.52;59.50;;;;;;;-1.30;95.84;100067.63;8430277;28;20476;-85
2021/12/13 01:29:50;;;;;;;189.60;63.43;;;;;;;-1.25;95.74;100063.53;8431124;28;20054;-84
2021/12/13 01:33:52;;;;;;;183.00;63.80;;;;;;;-1.27;96.47;100060.31;8431672;28;20312;-86
2021/12/13 01:37:54;;;;;;;237.75;78.90;;;;;;;-1.32;97.07;100056.41;8429754;28;20105;-85
2021/12/13 01:42:22;;;;;;;223.30;78.90;;;;;;;-1.24;96.83;100070.47;8430700;28;20081;-85
2021/12/13 01:46:24;;;;;;;176.40;63.13;;;;;;;-1.18;96.97;100053.75;8343830;28;20483;-86
2021/12/13 01:50:41;;;;;;;177.50;62.30;;;;;;;-1.12;97.36;100053.72;8360174;28;20060;-84
2021/12/13 01:54:42;;;;;;;165.90;60.72;;;;;;;-1.10;97.68;100045.53;8360750;28;20497;-83
2021/12/13 01:58:43;;;;;;;174.23;62.67;;;;;;;-1.09;97.63;100048.00;8366267;28;20055;-83
2021/12/13 02:02:51;;;;;;;188.13;67.00;;;;;;;-1.05;97.71;100049.19;8349134;28;20114;-83
2021/12/13 02:07:00;;;;;;;175.10;66.00;;;;;;;-1.02;98.03;100053.28;8364716;28;20051;-83
2021/12/13 02:11:03;;;;;;;189.65;66.78;;;;;;;-1.01;98.42;100054.91;8349318;28;20506;-83
2021/12/13 02:19:32;;;;;;;180.93;67.70;;;;;;;-0.89;97.41;100058.50;8349736;28;20339;-82
2021/12/13 02:23:42;;;;;;;187.50;66.68;;;;;;;-0.89;98.15;100047.91;8419682;28;20138;-82
2021/12/13 02:27:50;;;;;;;184.45;68.03;;;;;;;-0.82;97.88;100054.00;8429953;28;20048;-82
2021/12/13 02:31:51;;;;;;;201.18;68.47;;;;;;;-0.85;97.52;100049.13;8432925;28;20055;-82
2021/12/13 02:36:07;;;;;;;210.40;71.63;;;;;;;-0.93;97.38;100059.97;8398197;28;20048;-83
2021/12/13 02:40:09;;;;;;;195.52;69.65;;;;;;;-0.96;97.50;100063.03;8431806;28;20504;-82
2021/12/13 02:44:23;;;;;;;196.02;68.22;;;;;;;-0.88;97.56;100060.13;8397663;28;20437;-82
2021/12/13 02:48:45;;;;;;;194.90;69.00;;;;;;;-0.82;97.14;100069.91;8432307;28;20127;-82
2021/12/13 02:52:46;;;;;;;184.93;65.35;;;;;;;-0.76;96.91;100058.47;8433377;28;20430;-83
2021/12/13 02:56:59;;;;;;;186.52;66.40;;;;;;;-0.71;96.37;100061.28;8433323;28;20060;-82
2021/12/13 03:01:11;;;;;;;196.75;67.68;;;;;;;-0.78;96.60;100060.50;8432481;28;20056;-82
2021/12/13 03:05:40;;;;;;;190.57;65.10;;;;;;;-0.73;96.61;100063.31;8433003;28;20048;-82
2021/12/13 03:09:43;;;;;;;176.60;63.53;;;;;;;-0.86;96.29;100058.09;8362545;28;20414;-82
2021/12/13 03:13:44;;;;;;;189.05;66.75;;;;;;;-0.83;96.42;100062.97;8296510;28;20050;-83
2021/12/13 03:17:53;;;;;;;174.95;63.88;;;;;;;-0.80;96.05;100062.56;8263204;28;20097;-83
2021/12/13 03:22:07;;;;;;;184.32;64.65;;;;;;;-0.88;96.94;100070.75;8232920;28;20058;-82
2021/12/13 03:26:33;;;;;;;189.07;64.82;;;;;;;-0.82;96.61;100077.88;8200599;29;20450;-83
2021/12/13 03:30:40;;;;;;;180.07;63.88;;;;;;;-0.80;97.03;100067.88;8255448;28;20063;-83
2021/12/13 03:34:52;;;;;;;186.23;66.28;;;;;;;-0.87;97.18;100073.19;8246042;28;20053;-83
2021/12/13 03:38:58;;;;;;;204.65;68.28;;;;;;;-0.94;97.33;100071.59;8235431;28;20053;-83
2021/12/13 03:43:05;;;;;;;193.20;63.03;;;;;;;-0.93;97.84;100075.88;8239856;28;20104;-83
2021/12/13 03:47:11;;;;;;;185.50;62.90;;;;;;;-0.88;97.82;100076.06;8378556;28;20052;-82
2021/12/13 03:51:16;;;;;;;203.30;66.30;;;;;;;-0.87;97.95;100082.97;8395630;28;20543;-82
2021/12/13 03:55:19;;;;;;;195.70;64.78;;;;;;;-0.86;98.08;100079.31;8422131;28;20082;-82
2021/12/13 03:59:22;;;;;;;186.35;63.60;;;;;;;-0.85;98.02;100075.66;8432205;28;20048;-83
2021/12/13 04:03:24;;;;;;;213.48;68.00;;;;;;;-0.85;98.97;100075.66;8431118;28;20464;-83
2021/12/13 04:07:35;;;;;;;192.27;66.55;;;;;;;-0.81;99.14;100082.16;8433232;28;20078;-82
2021/12/13 04:11:41;;;;;;;186.52;62.65;;;;;;;-0.70;98.46;100078.84;8432353;28;20616;-82
2021/12/13 04:21:05;;;;;;;189.93;60.53;;;;;;;-0.74;99.57;100082.91;8432807;28;20079;-81
2021/12/13 04:25:13;;;;;;;194.17;63.40;;;;;;;-0.71;99.22;100087.81;8432997;28;20043;-81
2021/12/13 04:29:19;;;;;;;;;;;;;;;-0.73;99.43;100084.53;8405802;28;20036;-83
2021/12/13 04:33:28;;;;;;;200.88;64.05;;;;;;;-0.72;100.00;100083.53;8411854;28;19928;-84
2021/12/13 04:37:41;;;;;;;188.10;61.17;;;;;;;-0.65;100.00;100086.97;8416927;28;20480;-84
2021/12/13 04:41:46;;;;;;;177.85;57.22;;;;;;;-0.54;99.57;100085.47;8413490;28;20044;-84
2021/12/13 04:45:54;;;;;;;173.45;58.53;;;;;;;-0.54;99.41;100078.34;8413939;28;20618;-84
2021/12/13 04:50:22;;;;;;;190.38;61.42;;;;;;;-0.50;99.62;100071.56;8400264;28;20040;-83
2021/12/13 04:54:25;;;;;;;176.80;58.10;;;;;;;-0.43;99.49;100072.34;8425878;28;20513;-87
2021/12/13 04:58:28;;;;;;;178.77;58.13;;;;;;;-0.42;99.45;100079.28;8430099;28;20040;-83
2021/12/13 05:02:29;;;;;;;202.30;63.97;;;;;;;-0.39;99.30;100074.56;8431167;28;20534;-85
2021/12/13 05:06:33;;;;;;;207.90;66.78;;;;;;;-0.35;99.08;100081.88;8430172;28;20044;-85
2021/12/13 05:10:35;;;;;;;169.02;57.35;;;;;;;-0.31;99.36;100076.97;8423965;28;20048;-85
2021/12/13 05:14:52;;;;;;;169.27;54.92;;;;;;;-0.25;99.03;100076.09;8429578;28;20044;-88
2021/12/13 05:18:54;;;;;;;163.27;54.13;;;;;;;-0.18;98.73;100076.88;8428988;28;20036;-86
2021/12/13 05:23:01;;;;;;;153.27;51.10;;;;;;;-0.17;99.02;100081.97;8428392;28;20097;-86
2021/12/13 05:27:09;;;;;;;164.32;52.15;;;;;;;-0.15;98.93;100087.88;8428844;28;20093;-86
2021/12/13 05:31:16;;;;;;;156.27;51.30;;;;;;;-0.10;98.55;100084.56;8429399;28;20393;-86
2021/12/13 05:35:30;;;;;;;173.73;55.13;;;;;;;-0.18;99.27;100083.00;8411238;28;20044;-86
2021/12/13 05:39:31;;;;;;;171.10;52.53;;;;;;;-0.14;99.41;100091.34;8428615;28;20048;-87
2021/12/13 05:43:41;;;;;;;168.10;53.35;;;;;;;-0.14;99.17;100096.66;8429774;28;20050;-87
2021/12/13 05:47:58;;;;;;;162.18;51.65;;;;;;;-0.10;99.43;100100.50;8394260;28;20059;-87
2021/12/13 05:52:30;;;;;;;166.93;49.13;;;;;;;-0.04;99.37;100094.34;8429445;28;20164;-86
2021/12/13 05:56:55;;;;;;;171.45;47.97;;;;;;;0.00;99.22;100095.56;8342225;28;20061;-87
2021/12/13 06:00:57;;;;;;;168.63;47.22;;;;;;;0.00;98.98;100106.19;8360424;28;20504;-86
2021/12/13 06:05:05;;;;;;;226.00;56.25;;;;;;;0.02;98.86;100109.41;8343711;28;20111;-86
2021/12/13 06:09:06;;;;;;;207.40;60.43;;;;;;;0.04;99.22;100112.69;8343826;28;20052;-86
2021/12/13 06:13:11;;;;;;;230.20;67.25;;;;;;;0.09;99.00;100115.50;8343732;28;20061;-86
2021/12/13 06:17:38;;;;;;;267.58;77.22;;;;;;;0.13;98.51;100116.69;8359985;28;20048;-86
2021/12/13 06:22:09;;;;;;;313.50;80.65;;;;;;;0.16;98.34;100110.94;8327091;28;20427;-86
2021/12/13 06:26:12;;;;;;;291.08;82.72;;;;;;;0.20;98.29;100128.09;8310805;28;20053;-86
2021/12/13 06:30:27;;;;;;;311.85;82.47;;;;;;;0.21;98.40;100124.38;8229650;28;20542;-86
2021/12/13 06:34:28;;;;;;;242.85;76.35;;;;;;;0.24;98.37;100134.59;8229846;28;20059;-86
2021/12/13 06:38:37;;;;;;;239.82;70.85;;;;;;;0.26;97.97;100132.53;8229984;28;20058;-86
2021/12/13 06:42:38;;;;;;;250.32;71.15;;;;;;;0.27;97.87;100128.81;8233887;28;20165;-86
2021/12/13 06:46:43;;;;;;;256.50;65.43;;;;;;;0.29;98.17;100132.09;8219972;28;20116;-86
2021/12/13 06:50:46;;;;;;;223.60;62.55;;;;;;;0.31;97.74;100135.34;8235445;28;20066;-86
2021/12/13 06:54:59;;;;;;;220.40;60.30;;;;;;;0.32;97.80;100131.63;8218892;28;20063;-85
2021/12/13 06:59:03;;;;;;;299.85;66.20;;;;;;;0.35;97.95;100141.84;8355216;28;20143;-86
2021/12/13 07:03:10;;;;;;;210.15;58.80;;;;;;;0.37;97.99;100145.09;8434916;28;20048;-86
2021/12/13 07:07:12;;;;;;;230.05;65.20;;;;;;;0.38;97.67;100146.72;8433679;28;20044;-86
2021/12/13 07:11:20;;;;;;;255.57;69.50;;;;;;;0.38;97.57;100146.72;8434996;28;20681;-86
2021/12/13 07:15:29;;;;;;;198.47;64.17;;;;;;;0.42;97.87;100147.13;8435431;28;20044;-86
2021/12/13 07:19:30;;;;;;;229.77;66.43;;;;;;;0.45;97.35;100172.44;8435483;28;20181;-85
2021/12/13 07:24:10;;;;;;;198.27;55.58;;;;;;;0.46;97.51;100168.75;8434306;28;20043;-85
2021/12/13 07:28:12;;;;;;;201.82;57.58;;;;;;;0.48;97.77;100166.69;8433472;28;20136;-84
2021/12/13 07:32:13;;;;;;;186.10;54.47;;;;;;;0.50;97.40;100175.25;8433994;28;20044;-85
2021/12/13 07:36:27;;;;;;;152.02;48.05;;;;;;;0.53;97.58;100180.16;8433603;28;20040;-84
2021/12/13 07:40:40;;;;;;;167.98;46.97;;;;;;;0.50;97.23;100180.56;8430926;28;20062;-84
2021/12/13 07:44:42;;;;;;;184.13;46.40;;;;;;;0.51;97.50;100182.19;8431829;28;20459;-83
2021/12/13 07:48:43;;;;;;;160.68;44.50;;;;;;;0.57;97.57;100191.97;8431328;28;20489;-83
2021/12/13 07:52:44;;;;;;;193.80;47.63;;;;;;;0.62;97.20;100189.47;8429703;28;20055;-83
2021/12/13 07:56:52;;;;;;;166.70;44.13;;;;;;;0.67;97.21;100198.44;8430471;28;20059;-83
2021/12/13 08:00:54;;;;;;;157.15;42.88;;;;;;;0.74;97.05;100201.03;8430820;28;20047;-83
2021/12/13 08:05:01;;;;;;;157.15;41.05;;;;;;;0.78;96.97;100199.56;8430752;28;20076;-83
2021/12/13 08:09:06;;;;;;;174.07;45.60;;;;;;;0.81;97.06;100204.44;8430617;28;20040;-82
2021/12/13 08:13:15;;;;;;;187.90;47.33;;;;;;;0.83;96.90;100197.06;8429439;28;20044;-82
2021/12/13 08:17:19;;;;;;;195.18;46.30;;;;;;;0.89;97.09;100201.50;8430517;28;20279;-82
2021/12/13 08:21:25;;;;;;;196.27;49.05;;;;;;;0.96;96.74;100202.25;8429611;28;20052;-82
2021/12/13 08:25:37;;;;;;;234.50;48.00;;;;;;;1.09;96.75;100202.13;8429372;28;20052;-82
2021/12/13 08:29:40;;;;;;;242.75;48.75;;;;;;;1.21;96.55;100205.69;8429089;28;20043;-82
2021/12/13 08:33:49;;;;;;;250.45;50.58;;;;;;;1.30;96.37;100208.03;8429765;28;20051;-82
2021/12/13 08:37:58;;;;;;;298.55;52.70;;;;;;;1.36;95.74;100212.50;8428875;28;20413;-82
2021/12/13 08:42:21;;;;;;;234.32;48.20;;;;;;;1.41;95.79;100209.97;8428580;28;20101;-82
2021/12/13 08:46:44;;;;;;;228.35;50.90;;;;;;;1.52;95.65;100217.22;8429902;28;20044;-81
2021/12/13 08:50:52;;;;;;;172.57;36.05;;;;;;;1.64;95.62;100215.41;8376974;28;20047;-82
2021/12/13 08:55:16;;;;;;;144.32;37.63;;;;;;;1.73;95.37;100230.06;8429581;28;20048;-82
2021/12/13 08:59:24;;;;;;;217.95;54.90;;;;;;;1.76;94.87;100234.94;8429265;28;20056;-82
2021/12/13 09:03:37;;;;;;;181.23;68.65;;;;;;;1.73;94.83;100235.41;8428175;28;20561;-82
2021/12/13 09:07:48;;;;;;;190.90;42.20;;;;;;;1.71;94.95;100229.47;8428973;28;20050;-81
2021/12/13 09:12:00;;;;;;;164.32;38.78;;;;;;;1.70;95.23;100241.16;8428949;28;20421;-82
2021/12/13 09:16:01;;;;;;;104.90;32.13;;;;;;;1.68;95.51;100238.72;8411194;28;20048;-82
2021/12/13 09:20:25;;;;;;;98.15;30.52;;;;;;;1.69;95.65;100244.88;8428547;28;20074;-81
2021/12/13 09:24:37;;;;;;;148.82;34.65;;;;;;;1.70;95.39;100246.47;8341135;28;20060;-82
2021/12/13 09:28:45;;;;;;;101.82;30.73;;;;;;;1.70;95.81;100235.81;8357922;28;20538;-81
2021/12/13 09:33:03;;;;;;;116.03;26.92;;;;;;;1.73;95.77;100232.75;8341423;28;20053;-81
2021/12/13 09:37:06;;;;;;;80.65;24.92;;;;;;;1.77;95.83;100233.91;8358383;28;20037;-81
2021/12/13 09:41:46;;;;;;;151.15;26.95;;;;;;;1.79;95.61;100239.84;8357925;28;20045;-81
2021/12/13 09:45:55;;;;;;;86.53;23.70;;;;;;;1.82;95.63;100242.03;8324840;28;20049;-81
2021/12/13 09:49:56;;;;;;;85.22;22.88;;;;;;;1.85;95.92;100249.56;8292406;28;20075;-81
2021/12/13 09:54:00;;;;;;;75.55;22.92;;;;;;;1.84;95.77;100247.97;8324606;28;20057;-81
2021/12/13 09:58:04;;;;;;;93.50;22.70;;;;;;;1.89;95.72;100250.78;8324579;28;20053;-81
2021/12/13 10:02:16;;;;;;;109.45;22.23;;;;;;;1.93;95.74;100253.78;8324801;28;20078;-81
2021/12/13 10:06:24;;;;;;;88.90;21.08;;;;;;;1.99;95.44;100263.56;8292241;28;20060;-81
2021/12/13 10:10:30;;;;;;;119.30;19.25;;;;;;;2.05;95.15;100260.81;8308328;28;20171;-81
2021/12/13 10:14:41;;;;;;;184.35;24.02;;;;;;;2.10;95.44;100252.94;8344733;28;20051;-80
2021/12/13 10:18:47;;;;;;;109.35;19.00;;;;;;;2.12;94.97;100256.19;8433387;28;20052;-81
2021/12/13 10:22:48;;;;;;;123.05;20.52;;;;;;;2.13;95.29;100246.34;8434483;28;20090;-81
2021/12/13 10:26:51;;;;;;;85.45;21.25;;;;;;;2.13;95.50;100249.81;8433353;28;20051;-80
2021/12/13 10:31:00;;;;;;;126.13;19.90;;;;;;;2.16;95.59;100266.41;8416485;28;20095;-81
2021/12/13 10:35:09;;;;;;;127.90;17.95;;;;;;;2.13;95.59;100260.47;8432744;28;20047;-81
2021/12/13 10:39:16;;;;;;;225.75;64.18;;;;;;;2.13;95.59;100263.16;8414357;28;20490;-81
2021/12/13 10:43:30;;;;;;;264.63;58.08;;;;;;;2.19;95.99;100265.94;8434103;28;20048;-80
2021/12/13 10:47:37;;;;;;;133.70;25.02;;;;;;;2.23;95.93;100256.47;8415224;28;20052;-81
2021/12/13 10:51:40;;;;;;;100.90;23.92;;;;;;;2.22;95.84;100265.50;8433384;28;20040;-80
2021/12/13 10:55:46;;;;;;;228.38;28.38;;;;;;;2.24;95.92;100256.25;8414969;28;20095;-80
2021/12/13 10:59:49;;;;;;;84.82;15.75;;;;;;;2.26;96.09;100253.34;8432729;28;20458;-81
2021/12/13 11:03:53;;;;;;;179.02;27.92;;;;;;;2.28;96.04;100254.75;8413771;28;20425;-81
2021/12/13 11:07:54;;;;;;;140.43;30.48;;;;;;;2.32;96.21;100247.13;8432574;28;20044;-81
2021/12/13 11:12:13;;;;;;;65.85;13.80;;;;;;;2.34;96.18;100247.69;8431374;28;20055;-81
2021/12/13 11:16:17;;;;;;;57.65;15.15;;;;;;;2.36;96.51;100250.97;8433165;28;20074;-81
2021/12/13 11:20:23;;;;;;;80.90;15.93;;;;;;;2.36;96.51;100253.63;8431454;28;20051;-82
2021/12/13 11:24:24;;;;;;;61.97;14.90;;;;;;;2.35;96.95;100254.66;8396342;28;20044;-83
2021/12/13 11:28:29;;;;;;;120.13;20.77;;;;;;;2.38;97.15;100248.88;8432597;28;20044;-83
2021/12/13 11:32:38;;;;;;;138.27;43.47;;;;;;;2.42;96.89;100250.88;8430766;28;20052;-83
2021/12/13 11:37:06;;;;;;;210.15;60.63;;;;;;;2.44;97.07;100250.63;8431540;28;20101;-84
2021/12/13 11:41:44;;;;;;;159.20;28.60;;;;;;;2.49;96.99;100250.75;8431029;28;20408;-83
2021/12/13 11:46:17;;;;;;;178.35;22.60;;;;;;;2.53;96.88;100257.28;8431363;28;20150;-83
2021/12/13 11:50:55;;;;;;;90.88;14.60;;;;;;;2.57;96.98;100247.78;8360781;28;20152;-83
2021/12/13 11:55:08;;;;;;;59.50;12.07;;;;;;;2.61;96.65;100243.59;8343815;28;20187;-83
2021/12/13 11:59:49;;;;;;;130.50;12.40;;;;;;;2.62;96.78;100245.22;8360406;28;20059;-83
2021/12/13 12:04:11;;;;;;;82.90;13.90;;;;;;;2.60;97.00;100252.63;8343806;28;20049;-83
2021/12/13 12:08:31;;;;;;;84.07;11.13;;;;;;;2.61;97.14;100253.44;8360162;28;20041;-83
2021/12/13 12:12:50;;;;;;;86.75;13.45;;;;;;;2.62;96.98;100261.22;8343780;28;20477;-83
2021/12/13 12:16:52;;;;;;;;;;;;;;;2.63;97.16;100257.53;8360398;28;20425;-84
2021/12/13 12:21:31;;;;;;;40.83;11.65;;;;;;;2.61;97.19;100254.25;8360001;28;19971;-83
2021/12/13 12:25:34;;;;;;;115.70;13.93;;;;;;;2.62;97.26;100250.56;8402358;28;20095;-84
2021/12/13 12:29:38;;;;;;;160.35;14.35;;;;;;;2.66;97.53;100249.06;8430333;28;20485;-84
2021/12/13 12:33:40;;;;;;;100.93;16.90;;;;;;;2.68;97.51;100241.66;8429827;28;20072;-84
2021/12/13 12:37:56;;;;;;;183.25;21.80;;;;;;;2.73;97.41;100236.44;8429869;28;20051;-84
2021/12/13 12:42:25;;;;;;;254.90;28.17;;;;;;;2.71;97.38;100243.84;8429941;28;20491;-85
2021/12/13 12:46:30;;;;;;;220.43;28.53;;;;;;;2.67;97.54;100242.69;8429549;28;20131;-84
2021/12/13 12:50:57;;;;;;;259.23;62.58;;;;;;;2.63;97.99;100241.53;8429383;28;20044;-85
2021/12/13 12:54:58;;;;;;;206.25;39.08;;;;;;;2.64;98.06;100242.34;8429841;28;20398;-85
2021/12/13 12:59:16;;;;;;;198.18;35.38;;;;;;;2.64;98.09;100248.50;8429156;28;20048;-85
2021/12/13 13:03:27;;;;;;;173.35;30.00;;;;;;;2.64;98.06;100243.16;8429355;28;20075;-85
2021/12/13 13:07:31;;;;;;;129.70;31.45;;;;;;;2.65;98.14;100239.41;8429138;28;20108;-85
2021/12/13 13:11:35;;;;;;;144.68;39.22;;;;;;;2.67;98.32;100248.03;8429219;28;20044;-85
2021/12/13 13:15:41;;;;;;;262.88;71.35;;;;;;;2.69;98.33;100253.94;8411584;28;20064;-85
2021/12/13 13:19:45;;;;;;;172.07;43.50;;;;;;;2.68;98.29;100260.31;8427959;28;20096;-85
2021/12/13 13:23:55;;;;;;;175.57;40.55;;;;;;;2.68;98.20;100265.66;8427438;28;20139;-85
2021/12/13 13:27:58;;;;;;;177.25;43.35;;;;;;;2.65;97.99;100260.75;8428916;28;20134;-85
2021/12/13 13:32:00;;;;;;;168.73;37.05;;;;;;;2.61;98.17;100264.94;8427568;28;20047;-86
2021/12/13 13:36:03;;;;;;;107.63;32.85;;;;;;;2.57;98.39;100269.09;8428661;28;20081;-86
2021/12/13 13:40:09;;;;;;;111.55;29.42;;;;;;;2.54;98.66;100269.53;8429888;28;20117;-85
2021/12/13 13:44:14;;;;;;;104.03;29.38;;;;;;;2.51;98.61;100275.34;8427851;28;20097;-85
2021/12/13 13:48:20;;;;;;;103.72;29.38;;;;;;;2.48;98.59;100278.47;8428391;28;20044;-84
2021/12/13 13:52:23;;;;;;;75.60;26.13;;;;;;;2.44;98.60;100279.94;8431780;28;20044;-84
2021/12/13 13:56:27;;;;;;;106.45;26.88;;;;;;;2.41;98.68;100285.75;8435821;28;20088;-85
2021/12/13 14:01:06;;;;;;;81.97;27.08;;;;;;;2.37;98.58;100290.72;8434059;28;20044;-85
2021/12/13 14:05:09;;;;;;;;;;;;;;;2.34;98.75;100293.00;8331429;28;20195;-86
2021/12/13 14:09:28;;;;;;;95.35;22.25;;;;;;;2.30;98.85;100305.16;8330966;28;19996;-85
2021/12/13 14:13:34;;;;;;;88.82;23.85;;;;;;;2.28;98.78;100296.56;8330775;28;20053;-86
2021/12/13 14:17:35;;;;;;;80.88;24.48;;;;;;;2.26;98.69;100296.00;8330474;28;20038;-86
2021/12/13 14:21:43;;;;;;;87.07;23.63;;;;;;;2.22;98.78;100286.84;8330559;28;20438;-86
2021/12/13 14:25:50;;;;;;;109.25;24.38;;;;;;;2.18;98.52;100298.97;8330335;28;20058;-85
2021/12/13 14:30:13;;;;;;;75.55;23.98;;;;;;;2.17;99.08;100305.34;8330232;28;20053;-86
2021/12/13 14:34:25;;;;;;;72.50;23.77;;;;;;;2.15;98.84;100312.75;8313737;28;20487;-85
2021/12/13 14:38:26;;;;;;;72.32;23.85;;;;;;;2.11;98.90;100318.50;8330148;28;20491;-85
2021/12/13 14:42:27;;;;;;;69.20;22.83;;;;;;;2.11;98.85;100318.50;8425526;28;20051;-85
2021/12/13 14:46:32;;;;;;;82.63;25.25;;;;;;;2.08;98.70;100326.97;8433535;28;20048;-85
2021/12/13 14:50:33;;;;;;;67.22;21.20;;;;;;;2.03;98.80;100332.16;8433884;28;20074;-86
2021/12/13 14:54:36;;;;;;;54.40;20.17;;;;;;;2.01;98.86;100334.22;8433171;28;20139;-86
2021/12/13 14:58:43;;;;;;;70.68;19.77;;;;;;;1.99;98.92;100341.63;8431573;28;20040;-86
2021/12/13 15:02:49;;;;;;;133.68;25.58;;;;;;;1.98;98.82;100345.31;8430691;28;20072;-86
2021/12/13 15:06:59;;;;;;;117.15;29.33;;;;;;;1.93;98.59;100347.84;8431041;28;20098;-86
2021/12/13 15:11:09;;;;;;;93.70;24.23;;;;;;;1.92;98.96;100346.22;8430535;28;20048;-86
2021/12/13 15:15:23;;;;;;;81.68;23.10;;;;;;;1.91;98.87;100349.91;8430826;28;20055;-86
2021/12/13 15:19:28;;;;;;;99.63;21.88;;;;;;;1.90;98.82;100356.28;8378630;28;20060;-86
2021/12/13 15:23:31;;;;;;;86.80;25.65;;;;;;;1.89;98.52;100367.97;8429526;28;20052;-86
2021/12/13 15:27:32;;;;;;;93.20;21.70;;;;;;;1.89;98.45;100367.16;8429637;28;20056;-86
2021/12/13 15:31:41;;;;;;;92.53;25.70;;;;;;;1.86;98.88;100362.25;8430567;28;20047;-86
2021/12/13 15:35:45;;;;;;;157.82;31.17;;;;;;;1.86;98.58;100362.25;8428851;28;20416;-86
2021/12/13 15:40:08;;;;;;;117.32;31.08;;;;;;;1.82;98.58;100366.41;8428941;28;20055;-86
2021/12/13 15:44:13;;;;;;;99.05;29.50;;;;;;;1.82;98.43;100367.22;8429674;28;20052;-86
2021/12/13 15:52:39;;;;;;;102.38;29.45;;;;;;;1.81;98.60;100381.56;8429661;28;20051;-86
2021/12/13 15:56:44;;;;;;;132.03;29.40;;;;;;;1.81;98.34;100373.59;8387920;28;1199000;-86
2021/12/13 16:00:45;;;;;;;123.15;26.95;;;;;;;1.81;98.26;100370.09;8431393;28;20290;-86
2021/12/13 16:05:07;;;;;;;126.00;27.67;;;;;;;1.81;98.35;100370.91;8432333;28;20051;-87
2021/12/13 16:09:20;;;;;;;109.53;22.15;;;;;;;1.79;98.41;100378.34;8431451;28;20113;-85
2021/12/13 16:13:24;;;;;;;109.13;20.98;;;;;;;1.79;98.40;100389.00;8410157;28;20393;-88
2021/12/13 16:17:32;;;;;;;138.23;23.23;;;;;;;1.79;98.43;100373.00;8431811;28;20040;-88
2021/12/13 16:21:34;;;;;;;64.00;18.25;;;;;;;1.81;98.29;100373.59;8413209;28;20507;-88
2021/12/13 16:25:46;;;;;;;127.43;16.55;;;;;;;1.83;98.50;100378.69;8431088;28;20122;-87
2021/12/13 16:29:47;;;;;;;66.95;15.18;;;;;;;1.85;98.35;100385.41;8431871;28;20075;-86
2021/12/13 16:33:59;;;;;;;95.28;16.88;;;;;;;1.84;98.02;100380.34;8430734;28;20698;-87
2021/12/13 16:38:01;;;;;;;98.78;20.17;;;;;;;1.83;98.15;100384.84;8428758;28;20294;-87
2021/12/13 16:42:09;;;;;;;66.65;17.35;;;;;;;1.80;98.02;100385.25;8429553;28;20036;-88
2021/12/13 16:46:11;;;;;;;88.38;19.10;;;;;;;1.80;98.08;100385.25;8411651;28;20106;-91
2021/12/13 16:50:13;;;;;;;74.63;19.42;;;;;;;1.79;98.15;100389.00;8429847;28;20055;-87
2021/12/13 16:54:21;;;;;;;98.47;25.60;;;;;;;1.78;97.94;100392.69;8429573;28;20040;-88
2021/12/13 16:58:23;;;;;;;128.77;24.43;;;;;;;1.77;98.29;100388.38;8428252;28;20052;-89
2021/12/13 17:02:26;;;;;;;99.05;22.75;;;;;;;1.77;98.40;100385.72;8411768;28;20086;-90
2021/12/13 17:06:27;;;;;;;83.78;21.35;;;;;;;1.78;98.43;100382.03;8430507;28;20459;-90
2021/12/13 17:10:34;;;;;;;98.43;23.15;;;;;;;1.78;97.94;100392.69;8429960;28;20055;-90
2021/12/13 17:14:47;;;;;;;82.65;22.40;;;;;;;1.74;97.93;100383.50;8420954;28;20404;-90
2021/12/13 17:19:03;;;;;;;127.97;26.02;;;;;;;1.73;98.40;100378.38;8426008;28;20040;-90
2021/12/13 17:23:35;;;;;;;121.55;27.63;;;;;;;1.73;98.33;100384.53;8376848;28;20452;-90
2021/12/13 17:27:38;;;;;;;156.88;31.13;;;;;;;1.71;98.35;100386.59;8423984;28;20125;-90
2021/12/13 17:32:08;;;;;;;125.57;28.95;;;;;;;1.71;98.09;100391.91;8428961;28;20052;-90
2021/12/13 17:36:09;;;;;;;116.95;30.27;;;;;;;1.68;98.60;100392.38;8293135;28;20148;-89
2021/12/13 17:40:15;;;;;;;111.40;28.77;;;;;;;1.68;98.10;100403.03;8293021;28;20050;-89
2021/12/13 17:44:16;;;;;;;118.50;30.83;;;;;;;1.67;98.34;100402.22;8292946;28;20410;-90
2021/12/13 17:48:28;;;;;;;173.05;34.15;;;;;;;1.67;98.49;100401.38;8292774;28;20053;-91
2021/12/13 17:52:58;;;;;;;138.60;36.53;;;;;;;1.66;98.55;100400.56;8292718;28;20050;-89
2021/12/13 17:56:58;;;;;;;109.03;29.30;;;;;;;1.67;98.34;100401.38;8148986;29;20064;-90
2021/12/13 18:01:05;;;;;;;120.28;35.00;;;;;;;1.68;98.47;100392.38;8117118;29;20079;-90
2021/12/13 18:05:10;;;;;;;189.95;37.45;;;;;;;1.69;98.23;100404.66;8164412;29;20048;-90
2021/12/13 18:09:23;;;;;;;200.15;41.50;;;;;;;1.68;97.98;100403.03;8118146;29;20143;-88
2021/12/13 18:13:24;;;;;;;230.55;46.65;;;;;;;1.66;98.05;100405.91;8242330;28;20530;-90
2021/12/13 18:17:57;;;;;;;185.20;42.17;;;;;;;1.65;98.22;100392.78;8292232;28;20128;-90
2021/12/13 18:21:58;;;;;;;175.63;41.95;;;;;;;1.66;98.19;100394.44;8259129;28;20043;-91
2021/12/13 18:26:02;;;;;;;171.95;40.88;;;;;;;1.64;98.54;100396.47;8255566;28;20588;-90
2021/12/13 18:30:11;;;;;;;251.65;51.45;;;;;;;1.66;98.23;100395.25;8239907;28;20050;-89
2021/12/13 18:34:30;;;;;;;274.15;53.83;;;;;;;1.69;98.43;100394.78;8308285;28;20049;-89
2021/12/13 18:38:44;;;;;;;211.90;55.95;;;;;;;1.72;98.06;100388.22;8321249;28;20511;-90
2021/12/13 18:43:00;;;;;;;184.68;44.95;;;;;;;1.73;98.24;100389.88;8344115;28;20484;-90
2021/12/13 18:47:04;;;;;;;205.82;42.17;;;;;;;1.76;98.25;100394.72;8330216;28;20064;-89
2021/12/13 18:51:09;;;;;;;249.60;44.85;;;;;;;1.76;98.11;100410.72;8350285;28;20512;-87
2021/12/13 18:55:32;;;;;;;232.35;51.53;;;;;;;1.73;98.20;100395.19;8406649;28;20421;-90
2021/12/13 18:59:33;;;;;;;188.02;40.80;;;;;;;1.74;98.08;100391.50;8414643;28;20040;-89
2021/12/13 19:03:38;;;;;;;151.05;40.83;;;;;;;1.76;98.08;100392.06;8409167;28;20429;-89
2021/12/13 19:08:10;;;;;;;186.80;40.10;;;;;;;1.78;98.14;100400.66;8432356;28;20047;-88